createdAt,value
2018-08-07T00:00:26.212Z,6.43
2018-08-07T00:02:54.946Z,6.80
2018-08-07T00:05:25.093Z,6.30
2018-08-07T00:07:54.755Z,6.80
2018-08-07T00:10:24.527Z,7.00
2018-08-07T00:12:53.341Z,6.40
2018-08-07T00:15:27.979Z,6.40
2018-08-07T00:17:56.839Z,7.13
2018-08-07T00:20:25.996Z,7.73
2018-08-07T00:22:54.837Z,6.97
2018-08-07T00:25:25.505Z,7.47
2018-08-07T00:27:54.175Z,7.80
2018-08-07T00:30:22.816Z,8.57
2018-08-07T00:32:51.376Z,7.40
2018-08-07T00:35:20.656Z,6.37
2018-08-07T00:37:49.448Z,7.20
2018-08-07T00:40:18.883Z,7.10
2018-08-07T00:42:48.187Z,7.00
2018-08-07T00:45:18.943Z,7.43
2018-08-07T00:47:47.675Z,7.30
2018-08-07T00:50:20.594Z,7.30
2018-08-07T00:52:50.201Z,8.40
2018-08-07T00:55:19.610Z,7.20
2018-08-07T00:57:49.072Z,6.80
2018-08-07T01:00:17.796Z,8.13
2018-08-07T01:02:46.462Z,8.20
2018-08-07T01:05:16.827Z,7.80
2018-08-07T01:07:45.546Z,7.40
2018-08-07T01:10:33.421Z,9.50
2018-08-07T01:13:02.106Z,8.60
2018-08-07T01:15:31.819Z,7.97
2018-08-07T01:18:00.540Z,6.90
2018-08-07T01:20:30.409Z,7.77
2018-08-07T01:22:59.143Z,7.47
2018-08-07T01:25:28.187Z,6.97
2018-08-07T01:27:56.793Z,8.30
2018-08-07T01:30:29.190Z,7.90
2018-08-07T01:32:58.123Z,7.40
2018-08-07T01:35:29.211Z,8.13
2018-08-07T01:37:59.158Z,8.30
2018-08-07T01:40:28.221Z,8.87
2018-08-07T01:42:56.983Z,9.00
2018-08-07T01:45:25.630Z,7.70
2018-08-07T01:47:54.717Z,7.90
2018-08-07T01:50:24.290Z,8.47
2018-08-07T01:52:53.026Z,9.00
2018-08-07T01:55:24.721Z,8.80
2018-08-07T01:57:53.666Z,8.50
2018-08-07T02:00:22.916Z,7.43
2018-08-07T02:02:53.327Z,8.63
2018-08-07T02:05:27.056Z,7.70
2018-08-07T02:08:00.123Z,7.37
2018-08-07T02:10:29.177Z,7.10
2018-08-07T02:12:58.210Z,7.83
2018-08-07T02:15:27.155Z,8.20
2018-08-07T02:17:56.213Z,7.20
2018-08-07T02:20:25.225Z,7.80
2018-08-07T02:22:53.820Z,8.20
2018-08-07T02:25:22.431Z,8.27
2018-08-07T02:27:51.021Z,7.77
2018-08-07T02:30:19.708Z,7.87
2018-08-07T02:32:48.304Z,9.07
2018-08-07T02:35:17.693Z,7.90
2018-08-07T02:37:47.275Z,6.80
2018-08-07T02:40:16.539Z,8.70
2018-08-07T02:42:45.246Z,11.00
2018-08-07T02:45:16.279Z,9.60
2018-08-07T02:47:45.528Z,7.63
2018-08-07T02:50:17.049Z,8.87
2018-08-07T02:52:45.844Z,7.63
2018-08-07T02:55:15.298Z,7.37
2018-08-07T02:57:44.629Z,7.43
2018-08-07T03:00:19.452Z,7.60
2018-08-07T03:02:48.227Z,8.73
2018-08-07T03:05:17.747Z,7.23
2018-08-07T03:07:46.572Z,7.30
2018-08-07T03:10:15.155Z,8.00
2018-08-07T03:12:43.841Z,8.57
2018-08-07T03:15:17.743Z,7.60
2018-08-07T03:17:47.554Z,7.47
2018-08-07T03:20:16.433Z,7.40
2018-08-07T03:22:45.076Z,7.30
2018-08-07T03:25:14.760Z,6.87
2018-08-07T03:27:44.511Z,6.73
2018-08-07T03:30:17.752Z,7.63
2018-08-07T03:32:46.876Z,7.10
2018-08-07T03:35:15.593Z,7.87
2018-08-07T03:37:44.172Z,7.57
2018-08-07T03:40:15.953Z,7.33
2018-08-07T03:42:44.816Z,6.63
2018-08-07T03:45:17.028Z,6.50
2018-08-07T03:47:46.758Z,7.03
2018-08-07T03:50:15.439Z,6.83
2018-08-07T03:52:44.040Z,7.30
2018-08-07T03:55:17.701Z,7.30
2018-08-07T03:57:47.629Z,7.83
2018-08-07T04:00:19.261Z,6.43
2018-08-07T04:02:47.964Z,7.50
2018-08-07T04:05:16.651Z,6.93
2018-08-07T04:07:46.290Z,8.10
2018-08-07T04:10:16.544Z,8.27
2018-08-07T04:12:45.162Z,8.53
2018-08-07T04:15:15.468Z,8.23
2018-08-07T04:17:44.570Z,7.73
2018-08-07T04:20:15.684Z,9.40
2018-08-07T04:22:44.299Z,7.83
2018-08-07T04:25:14.680Z,7.50
2018-08-07T04:27:43.275Z,7.30
2018-08-07T04:30:14.896Z,8.23
2018-08-07T04:32:43.989Z,6.40
2018-08-07T04:35:13.336Z,7.83
2018-08-07T04:37:41.902Z,7.13
2018-08-07T04:40:11.092Z,6.07
2018-08-07T04:42:40.620Z,8.00
2018-08-07T04:45:13.048Z,6.67
2018-08-07T04:47:41.935Z,7.70
2018-08-07T04:50:10.585Z,8.27
2018-08-07T04:52:39.527Z,8.47
2018-08-07T04:55:09.183Z,9.00
2018-08-07T04:57:40.727Z,9.87
2018-08-07T05:00:12.720Z,9.53
2018-08-07T05:02:41.339Z,7.63
2018-08-07T05:05:10.532Z,7.50
2018-08-07T05:07:39.308Z,7.70
2018-08-07T05:10:12.505Z,7.50
2018-08-07T05:12:41.278Z,6.87
2018-08-07T05:15:10.956Z,6.93
2018-08-07T05:17:40.709Z,6.80
2018-08-07T05:20:09.523Z,6.10
2018-08-07T05:22:39.143Z,7.10
2018-08-07T05:25:08.666Z,6.20
2018-08-07T05:27:37.617Z,5.37
2018-08-07T05:30:07.665Z,6.77
2018-08-07T05:32:36.351Z,6.10
2018-08-07T05:35:06.047Z,6.90
2018-08-07T05:37:34.832Z,6.07
2018-08-07T05:40:03.612Z,6.37
2018-08-07T05:42:32.325Z,6.70
2018-08-07T05:45:00.838Z,6.80
2018-08-07T05:47:29.475Z,5.83
2018-08-07T05:49:58.041Z,6.33
2018-08-07T05:52:26.806Z,6.00
2018-08-07T05:54:55.411Z,5.90
2018-08-07T05:57:24.101Z,6.10
2018-08-07T05:59:52.693Z,6.63
2018-08-07T06:02:21.267Z,6.43
2018-08-07T06:04:50.526Z,5.83
2018-08-07T06:07:19.378Z,6.43
2018-08-07T06:09:47.977Z,6.43
2018-08-07T06:12:16.552Z,6.23
2018-08-07T06:14:45.178Z,7.60
2018-08-07T06:19:44.148Z,6.17
2018-08-07T06:22:12.865Z,6.43
2018-08-07T06:24:41.424Z,6.90
2018-08-07T06:27:10.128Z,7.03
2018-08-07T06:29:38.782Z,7.50
2018-08-07T06:32:07.480Z,6.70
2018-08-07T06:34:36.299Z,7.60
2018-08-07T06:37:04.940Z,7.17
2018-08-07T06:39:33.844Z,6.67
2018-08-07T06:42:02.464Z,6.90
2018-08-07T06:44:31.262Z,6.60
2018-08-07T06:47:00.176Z,7.90
2018-08-07T06:49:28.871Z,6.90
2018-08-07T06:51:57.485Z,6.80
2018-08-07T06:54:26.064Z,6.40
2018-08-07T06:56:54.693Z,8.33
2018-08-07T06:59:23.563Z,7.33
2018-08-07T07:01:52.424Z,6.83
2018-08-07T07:04:21.008Z,7.27
2018-08-07T07:06:49.585Z,6.87
2018-08-07T07:09:18.247Z,7.23
2018-08-07T07:11:46.838Z,7.20
2018-08-07T07:14:15.442Z,7.20
2018-08-07T07:16:44.068Z,7.87
2018-08-07T07:22:15.923Z,8.50
2018-08-07T07:24:44.839Z,9.03
2018-08-07T07:27:15.134Z,8.53
2018-08-07T07:29:43.867Z,8.73
2018-08-07T07:32:12.529Z,8.20
2018-08-07T07:34:42.007Z,9.90
2018-08-07T07:37:10.817Z,8.40
2018-08-07T07:47:44.311Z,9.67
2018-08-07T07:50:15.397Z,9.03
2018-08-07T07:52:45.002Z,8.43
2018-08-07T07:58:04.609Z,8.63
2018-08-07T08:00:33.315Z,9.00
2018-08-07T08:03:02.763Z,8.63
2018-08-07T08:05:31.461Z,8.10
2018-08-07T08:08:00.059Z,8.17
2018-08-07T08:10:28.751Z,8.00
2018-08-07T08:12:57.369Z,7.67
2018-08-07T08:15:26.320Z,8.90
2018-08-07T08:17:54.971Z,8.27
2018-08-07T08:20:25.182Z,8.70
2018-08-07T08:22:54.679Z,9.03
2018-08-07T08:25:23.415Z,8.80
2018-08-07T08:30:42.191Z,8.50
2018-08-07T08:33:28.979Z,9.30
2018-08-07T08:35:57.862Z,9.00
2018-08-07T08:38:26.671Z,8.63
2018-08-07T08:40:55.333Z,8.50
2018-08-07T08:43:24.044Z,8.50
2018-08-07T08:45:52.707Z,8.50
2018-08-07T08:51:11.712Z,8.90
2018-08-07T08:53:40.328Z,9.63
2018-08-07T08:56:08.970Z,8.73
2018-08-07T08:58:37.665Z,8.40
2018-08-07T09:01:06.615Z,9.60
2018-08-07T09:03:35.332Z,8.60
2018-08-07T09:06:03.923Z,8.50
2018-08-07T09:08:32.568Z,8.67
2018-08-07T09:11:01.176Z,9.13
2018-08-07T09:13:29.841Z,9.60
2018-08-07T09:15:58.556Z,8.90
2018-08-07T09:18:27.180Z,9.10
2018-08-07T09:20:55.859Z,9.07
2018-08-07T09:23:24.508Z,9.00
2018-08-07T09:25:53.417Z,8.80
2018-08-07T09:28:21.859Z,8.07
2018-08-07T09:30:51.546Z,9.40
2018-08-07T09:33:20.180Z,9.27
2018-08-07T09:35:48.949Z,10.93
2018-08-07T09:38:17.801Z,9.33
2018-08-07T09:40:46.451Z,9.90
2018-08-07T09:43:15.444Z,8.57
2018-08-07T09:45:44.021Z,8.60
2018-08-07T09:48:13.373Z,9.17
2018-08-07T09:50:42.016Z,10.83
2018-08-07T09:53:10.707Z,8.83
2018-08-07T09:55:39.636Z,9.30
2018-08-07T09:58:08.659Z,9.80
2018-08-07T10:00:42.555Z,9.63
2018-08-07T10:03:16.730Z,11.63
2018-08-07T10:05:46.441Z,9.60
2018-08-07T10:08:15.180Z,10.43
2018-08-07T10:10:45.150Z,10.27
2018-08-07T10:13:15.112Z,10.50
2018-08-07T10:15:45.090Z,10.13
2018-08-07T10:18:13.904Z,10.30
2018-08-07T10:20:42.555Z,9.97
2018-08-07T10:23:11.718Z,11.30
2018-08-07T10:25:40.508Z,11.17
2018-08-07T10:28:09.204Z,11.10
2018-08-07T10:30:37.915Z,9.87
2018-08-07T10:33:06.735Z,10.00
2018-08-07T10:35:35.464Z,10.80
2018-08-07T10:38:04.129Z,9.43
2018-08-07T10:40:33.983Z,11.10
2018-08-07T10:43:03.762Z,11.63
2018-08-07T10:45:32.719Z,9.87
2018-08-07T10:48:01.729Z,9.90
2018-08-07T10:50:30.749Z,11.57
2018-08-07T10:53:00.158Z,11.10
2018-08-07T10:55:28.973Z,11.60
2018-08-07T10:58:00.333Z,11.27
2018-08-07T11:00:32.653Z,10.50
2018-08-07T11:03:01.875Z,9.93
2018-08-07T11:05:31.165Z,10.93
2018-08-07T11:08:00.190Z,9.10
2018-08-07T11:10:28.878Z,11.40
2018-08-07T11:12:57.635Z,11.20
2018-08-07T11:15:28.961Z,10.20
2018-08-07T11:17:58.489Z,11.40
2018-08-07T11:20:27.187Z,11.37
2018-08-07T11:22:57.240Z,10.47
2018-08-07T11:25:27.060Z,11.27
2018-08-07T11:27:55.611Z,11.30
2018-08-07T11:30:25.660Z,10.47
2018-08-07T11:32:55.320Z,9.97
2018-08-07T11:35:24.622Z,10.30
2018-08-07T11:37:55.671Z,10.20
2018-08-07T11:40:25.052Z,10.30
2018-08-07T11:42:54.405Z,11.63
2018-08-07T11:45:25.512Z,10.23
2018-08-07T11:47:54.291Z,10.97
2018-08-07T11:50:24.520Z,10.80
2018-08-07T11:58:34.428Z,10.73
2018-08-07T12:03:57.578Z,10.43
2018-08-07T12:06:27.978Z,10.93
2018-08-07T12:08:56.547Z,10.83
2018-08-07T12:11:25.189Z,11.40
2018-08-07T12:13:53.883Z,11.60
2018-08-07T12:16:22.568Z,9.93
2018-08-07T12:32:19.425Z,11.30
2018-08-07T12:34:48.045Z,10.83
2018-08-07T12:37:16.965Z,10.17
2018-08-07T13:00:58.471Z,11.97
2018-08-07T13:03:27.283Z,11.60
2018-08-07T13:05:56.206Z,13.17
2018-08-07T13:08:25.431Z,11.67
2018-08-07T13:10:54.336Z,12.17
2018-08-07T13:13:23.012Z,12.30
2018-08-07T13:15:52.037Z,11.80
2018-08-07T13:18:21.708Z,11.57
2018-08-07T13:20:50.604Z,11.50
2018-08-07T13:23:22.176Z,11.47
2018-08-07T13:25:50.922Z,12.13
2018-08-07T13:28:22.771Z,12.30
2018-08-07T13:31:32.678Z,11.77
2018-08-07T13:34:01.216Z,14.50
2018-08-07T13:36:30.240Z,12.27
2018-08-07T13:56:02.504Z,14.83
2018-08-07T13:58:31.105Z,15.50
2018-08-07T14:00:59.667Z,15.53
2018-08-07T14:03:28.336Z,16.30
2018-08-07T14:05:57.057Z,15.47
2018-08-07T14:08:25.628Z,14.50
2018-08-07T14:10:55.487Z,14.80
2018-08-07T14:13:27.958Z,16.33
2018-08-07T14:15:56.687Z,16.23
2018-08-07T14:18:26.415Z,15.50
2018-08-07T14:20:55.184Z,14.50
2018-08-07T14:23:23.888Z,15.17
2018-08-07T14:25:52.576Z,15.10
2018-08-07T14:28:21.168Z,15.47
2018-08-07T14:30:49.874Z,15.80
2018-08-07T14:33:18.459Z,16.63
2018-08-07T14:35:47.066Z,16.40
2018-08-07T14:38:15.703Z,17.43
2018-08-07T14:40:44.447Z,16.13
2018-08-07T14:43:13.158Z,17.10
2018-08-07T14:45:41.816Z,15.83
2018-08-07T14:48:10.673Z,17.10
2018-08-07T14:50:39.432Z,17.77
2018-08-07T14:53:08.566Z,15.07
2018-08-07T14:55:37.257Z,15.63
2018-08-07T14:58:05.899Z,16.40
2018-08-07T15:00:34.589Z,16.80
2018-08-07T15:03:03.242Z,15.43
2018-08-07T15:05:31.928Z,15.07
2018-08-07T15:08:00.480Z,13.70
2018-08-07T15:10:29.157Z,15.80
2018-08-07T15:12:57.689Z,13.93
2018-08-07T15:15:28.808Z,14.60
2018-08-07T15:17:57.475Z,14.17
2018-08-07T15:20:27.934Z,15.70
2018-08-07T15:22:57.375Z,15.97
2018-08-07T15:25:27.311Z,14.50
2018-08-07T15:27:56.160Z,14.80
2018-08-07T15:30:26.184Z,17.33
2018-08-07T15:32:55.136Z,14.63
2018-08-07T15:35:25.451Z,15.60
2018-08-07T15:37:54.232Z,16.50
2018-08-07T15:40:23.688Z,14.97
2018-08-07T15:42:52.331Z,15.43
2018-08-07T15:45:22.763Z,14.80
2018-08-07T15:47:51.636Z,13.73
2018-08-07T15:50:21.426Z,14.13
2018-08-07T15:52:52.639Z,15.80
2018-08-07T15:55:22.887Z,14.60
2018-08-07T15:57:51.527Z,14.83
2018-08-07T16:00:23.624Z,14.43
2018-08-07T16:02:52.506Z,14.63
2018-08-07T16:05:21.269Z,15.30
2018-08-07T16:07:51.066Z,15.40
2018-08-07T16:10:20.477Z,14.57
2018-08-07T16:12:51.235Z,14.83
2018-08-07T16:15:19.863Z,14.83
2018-08-07T16:20:48.833Z,15.93
2018-08-07T16:23:17.397Z,15.30
2018-08-07T16:25:46.364Z,15.30
2018-08-07T16:28:15.001Z,15.90
2018-08-07T16:30:43.719Z,15.73
2018-08-07T16:33:12.544Z,16.43
2018-08-07T16:35:41.589Z,17.00
2018-08-07T16:38:10.268Z,15.87
2018-08-07T16:40:38.913Z,16.30
2018-08-07T16:43:07.544Z,16.30
2018-08-07T16:45:36.133Z,15.37
2018-08-07T16:48:04.949Z,16.10
2018-08-07T16:50:34.382Z,15.27
2018-08-07T16:53:03.005Z,15.30
2018-08-07T16:55:34.628Z,14.43
2018-08-07T16:58:03.324Z,13.50
2018-08-07T17:00:31.981Z,13.47
2018-08-07T17:03:00.572Z,13.60
2018-08-07T17:05:29.536Z,15.40
2018-08-07T17:07:58.163Z,13.97
2018-08-07T17:10:28.057Z,15.20
2018-08-07T17:12:57.072Z,14.27
2018-08-07T17:15:25.776Z,13.50
2018-08-07T17:17:54.488Z,13.80
2018-08-07T17:20:25.540Z,13.53
2018-08-07T17:22:54.676Z,15.37
2018-08-07T17:25:24.040Z,15.60
2018-08-07T17:27:52.718Z,14.60
2018-08-07T17:30:23.449Z,14.13
2018-08-07T17:32:52.271Z,16.40
2018-08-07T17:35:22.306Z,15.87
2018-08-07T17:37:52.452Z,16.40
2018-08-07T17:40:22.383Z,16.87
2018-08-07T17:42:51.264Z,14.17
2018-08-07T17:45:19.903Z,15.60
2018-08-07T17:47:48.590Z,15.17
2018-08-07T17:50:20.036Z,16.20
2018-08-07T17:52:48.692Z,17.23
2018-08-07T17:55:17.871Z,16.33
2018-08-07T17:57:46.919Z,17.73
2018-08-07T18:00:17.933Z,17.10
2018-08-07T18:02:46.892Z,16.20
2018-08-07T18:05:15.523Z,16.17
2018-08-07T18:07:46.899Z,15.10
2018-08-07T18:10:17.033Z,16.80
2018-08-07T18:12:45.735Z,16.97
2018-08-07T18:15:16.156Z,15.73
2018-08-07T18:17:45.270Z,17.50
2018-08-07T18:20:17.040Z,15.83
2018-08-07T18:22:45.648Z,14.83
2018-08-07T18:25:14.552Z,14.83
2018-08-07T18:27:43.230Z,13.60
2018-08-07T18:30:14.508Z,13.57
2018-08-07T18:32:43.722Z,14.73
2018-08-07T18:35:14.664Z,14.10
2018-08-07T18:37:43.351Z,14.07
2018-08-07T18:40:12.508Z,16.93
2018-08-07T18:42:41.536Z,16.97
2018-08-07T18:45:12.348Z,15.30
2018-08-07T18:47:41.963Z,13.53
2018-08-07T18:50:12.393Z,13.70
2018-08-07T18:52:41.056Z,13.53
2018-08-07T18:55:12.961Z,14.00
2018-08-07T18:57:42.588Z,11.00
2018-08-07T19:00:14.111Z,10.73
2018-08-07T19:02:42.872Z,9.67
2018-08-07T19:05:13.995Z,10.40
2018-08-07T19:07:42.619Z,10.83
2018-08-07T19:10:11.841Z,10.90
2018-08-07T19:12:40.537Z,9.70
2018-08-07T19:15:10.812Z,10.03
2018-08-07T19:17:39.764Z,10.03
2018-08-07T19:20:09.538Z,9.33
2018-08-07T19:22:38.128Z,11.50
2018-08-07T19:25:07.960Z,17.23
2018-08-07T19:27:36.587Z,11.43
2018-08-07T19:30:07.523Z,11.43
2018-08-07T19:32:36.174Z,11.60
2018-08-07T19:35:05.361Z,12.03
2018-08-07T19:37:34.272Z,12.70
2018-08-07T19:40:03.393Z,12.93
2018-08-07T19:42:32.049Z,11.77
2018-08-07T19:45:00.793Z,12.67
2018-08-07T19:47:29.571Z,12.67
2018-08-07T19:49:58.576Z,13.10
2018-08-07T19:52:27.168Z,11.53
2018-08-07T19:54:55.813Z,11.27
2018-08-07T19:57:24.905Z,11.83
2018-08-07T19:59:53.472Z,12.03
2018-08-07T20:02:22.363Z,10.83
2018-08-07T20:04:51.436Z,11.53
2018-08-07T20:07:21.454Z,10.30
2018-08-07T20:09:50.936Z,9.50
2018-08-07T20:12:19.552Z,11.27
2018-08-07T20:14:48.100Z,10.90
2018-08-07T20:17:18.935Z,11.77
2018-08-07T20:19:47.592Z,10.17
2018-08-07T20:22:17.277Z,10.90
2018-08-07T20:24:46.021Z,10.87
2018-08-07T20:27:14.869Z,12.50
2018-08-07T20:29:43.811Z,11.50
2018-08-07T20:32:12.544Z,14.10
2018-08-07T20:34:41.612Z,12.37
2018-08-07T20:37:10.365Z,12.47
2018-08-07T20:39:39.066Z,11.23
2018-08-07T20:42:07.688Z,12.53
2018-08-07T20:44:36.303Z,12.87
2018-08-07T20:47:04.988Z,12.60
2018-08-07T20:49:33.604Z,10.93
2018-08-07T20:52:02.299Z,11.83
2018-08-07T20:54:31.011Z,12.03
2018-08-07T20:56:59.771Z,11.17
2018-08-07T20:59:28.969Z,10.90
2018-08-07T21:01:57.930Z,11.90
2018-08-07T21:04:27.162Z,11.30
2018-08-07T21:06:55.881Z,12.07
2018-08-07T21:09:26.154Z,10.93
2018-08-07T21:11:54.753Z,11.20
2018-08-07T21:14:23.467Z,12.17
2018-08-07T21:16:52.120Z,12.57
2018-08-07T21:19:20.683Z,11.80
2018-08-07T21:21:49.363Z,12.00
2018-08-07T21:24:17.956Z,12.50
2018-08-07T21:26:46.664Z,13.47
2018-08-07T21:29:15.373Z,13.03
2018-08-07T21:31:44.218Z,12.50
2018-08-07T21:34:13.092Z,11.77
2018-08-07T21:36:41.640Z,11.23
2018-08-07T21:39:11.324Z,11.77
2018-08-07T21:42:08.901Z,13.13
2018-08-07T21:44:38.268Z,12.70
2018-08-07T21:47:07.015Z,12.70
2018-08-07T21:49:35.689Z,12.43
2018-08-07T21:52:04.263Z,12.47
2018-08-07T21:54:32.903Z,12.23
2018-08-07T21:57:01.590Z,11.97
2018-08-07T21:59:30.155Z,12.83
2018-08-07T22:01:59.353Z,12.40
2018-08-07T22:04:27.955Z,11.73
2018-08-07T22:06:57.498Z,13.53
2018-08-07T22:09:29.049Z,12.50
2018-08-07T22:11:57.744Z,12.50
2018-08-07T22:14:26.348Z,11.97
2018-08-07T22:16:54.907Z,10.67
2018-08-07T22:22:26.691Z,10.77
2018-08-07T22:24:55.403Z,11.63
2018-08-07T22:27:23.994Z,11.77
2018-08-07T22:29:52.590Z,11.30
2018-08-07T22:32:21.140Z,11.83
2018-08-07T22:34:49.744Z,11.77
2018-08-07T22:37:18.726Z,12.30
2018-08-07T22:39:47.771Z,12.13
2018-08-07T22:42:16.456Z,11.53
2018-08-07T22:44:45.179Z,11.93
2018-08-07T22:47:15.520Z,12.50
2018-08-07T22:49:44.347Z,13.63
2018-08-07T22:52:13.036Z,11.47
2018-08-07T22:54:41.733Z,12.90
2018-08-07T22:57:12.397Z,12.20
2018-08-07T22:59:41.060Z,11.10
2018-08-07T23:02:09.809Z,13.20
2018-08-07T23:04:38.364Z,13.37
2018-08-07T23:07:07.100Z,13.70
2018-08-07T23:09:35.746Z,12.73
2018-08-07T23:12:04.405Z,13.07
2018-08-07T23:14:32.982Z,12.37
2018-08-07T23:17:01.636Z,12.57
2018-08-07T23:19:30.623Z,12.53
2018-08-07T23:21:59.276Z,14.07
2018-08-07T23:24:27.816Z,13.87
2018-08-07T23:26:56.391Z,13.07
2018-08-07T23:29:25.021Z,12.50
2018-08-07T23:31:53.622Z,14.70
2018-08-07T23:34:22.371Z,12.90
2018-08-07T23:36:50.964Z,12.87
2018-08-07T23:39:19.557Z,12.40
2018-08-07T23:41:48.316Z,12.10
2018-08-07T23:44:17.136Z,13.50
2018-08-07T23:46:45.705Z,12.37
2018-08-07T23:49:14.340Z,11.87
2018-08-07T23:51:42.947Z,11.13
2018-08-07T23:54:11.544Z,13.00
2018-08-07T23:56:40.168Z,11.90
2018-08-07T23:59:08.852Z,12.90
